createdAt,value
2022-09-09T00:01:02.207Z,16.60
2022-09-09T00:03:40.416Z,16.60
2022-09-09T00:06:14.833Z,16.60
2022-09-09T00:08:50.309Z,16.50
2022-09-09T00:11:31.418Z,16.50
2022-09-09T00:14:05.428Z,16.50
2022-09-09T00:16:39.985Z,16.50
2022-09-09T00:19:16.514Z,16.50
2022-09-09T00:21:54.011Z,16.40
2022-09-09T00:24:29.919Z,16.40
2022-09-09T00:27:06.578Z,16.40
2022-09-09T00:29:39.541Z,16.40
2022-09-09T00:32:15.525Z,16.40
2022-09-09T00:34:51.693Z,16.40
2022-09-09T00:37:22.155Z,16.40
2022-09-09T00:39:53.118Z,16.40
2022-09-09T00:42:26.517Z,16.40
2022-09-09T00:45:01.671Z,16.40
2022-09-09T00:47:43.485Z,16.40
2022-09-09T00:50:27.940Z,16.40
2022-09-09T00:53:04.645Z,16.40
2022-09-09T00:55:42.423Z,16.40
2022-09-09T00:58:11.193Z,16.40
2022-09-09T01:00:45.268Z,16.40
2022-09-09T01:03:25.561Z,16.40
2022-09-09T01:06:04.376Z,16.40
2022-09-09T01:08:48.401Z,16.40
2022-09-09T01:11:23.362Z,16.40
2022-09-09T01:14:00.048Z,16.40
2022-09-09T01:16:29.128Z,16.40
2022-09-09T01:18:59.644Z,16.40
2022-09-09T01:21:40.734Z,16.40
2022-09-09T01:24:24.198Z,16.40
2022-09-09T01:26:56.773Z,16.30
2022-09-09T01:29:25.387Z,16.20
2022-09-09T01:31:57.973Z,16.30
2022-09-09T01:34:28.775Z,16.30
2022-09-09T01:37:05.586Z,16.30
2022-09-09T01:39:34.981Z,16.40
2022-09-09T01:42:05.755Z,16.40
2022-09-09T01:44:34.387Z,16.40
2022-09-09T01:47:03.036Z,16.50
2022-09-09T01:49:31.310Z,16.50
2022-09-09T01:52:00.017Z,16.50
2022-09-09T01:54:31.774Z,16.50
2022-09-09T01:57:08.497Z,16.50
2022-09-09T01:59:58.739Z,16.50
2022-09-09T02:02:32.893Z,16.50
2022-09-09T02:05:09.918Z,16.60
2022-09-09T02:07:42.922Z,16.60
2022-09-09T02:10:13.996Z,16.50
2022-09-09T02:12:49.420Z,16.60
2022-09-09T02:15:24.607Z,16.60
2022-09-09T02:17:55.483Z,16.60
2022-09-09T02:20:27.877Z,16.60
2022-09-09T02:22:59.118Z,16.60
2022-09-09T02:25:30.436Z,16.60
2022-09-09T02:28:00.434Z,16.60
2022-09-09T02:30:31.611Z,16.60
2022-09-09T02:33:02.473Z,16.60
2022-09-09T02:35:31.662Z,16.60
2022-09-09T02:38:04.391Z,16.60
2022-09-09T02:40:32.999Z,16.60
2022-09-09T02:43:03.656Z,16.60
2022-09-09T02:45:41.069Z,16.60
2022-09-09T02:48:16.839Z,16.70
2022-09-09T02:50:55.243Z,16.60
2022-09-09T02:53:27.430Z,16.60
2022-09-09T02:55:59.672Z,16.60
2022-09-09T02:58:30.146Z,16.60
2022-09-09T03:00:59.633Z,16.60
2022-09-09T03:03:28.167Z,16.70
2022-09-09T03:05:56.402Z,16.70
2022-09-09T03:08:25.116Z,16.70
2022-09-09T03:10:55.430Z,16.70
2022-09-09T03:13:23.702Z,16.80
2022-09-09T03:15:53.439Z,16.80
2022-09-09T03:18:22.857Z,16.80
2022-09-09T03:20:51.994Z,16.80
2022-09-09T03:23:20.269Z,16.80
2022-09-09T03:25:52.261Z,16.80
2022-09-09T03:28:21.873Z,16.90
2022-09-09T03:30:49.964Z,16.90
2022-09-09T03:33:19.497Z,16.70
2022-09-09T03:35:51.299Z,16.80
2022-09-09T03:38:19.490Z,16.70
2022-09-09T03:40:56.368Z,16.80
2022-09-09T03:43:24.946Z,16.80
2022-09-09T03:45:53.668Z,16.70
2022-09-09T03:48:23.245Z,16.80
2022-09-09T03:50:53.269Z,16.70
2022-09-09T03:53:23.527Z,16.70
2022-09-09T03:55:55.464Z,16.70
2022-09-09T03:58:27.751Z,16.70
2022-09-09T04:00:57.209Z,16.70
2022-09-09T04:03:28.422Z,16.80
2022-09-09T04:05:57.793Z,16.80
2022-09-09T04:08:26.955Z,16.80
2022-09-09T04:10:58.101Z,16.80
2022-09-09T04:13:27.455Z,16.70
2022-09-09T04:15:57.483Z,16.80
2022-09-09T04:18:29.126Z,16.80
2022-09-09T04:20:58.199Z,16.80
2022-09-09T04:23:28.228Z,16.70
2022-09-09T04:25:59.092Z,16.80
2022-09-09T04:28:30.633Z,16.80
2022-09-09T04:31:06.683Z,16.70
2022-09-09T04:33:40.144Z,16.80
2022-09-09T04:36:09.477Z,16.80
2022-09-09T04:38:38.458Z,16.80
2022-09-09T04:41:08.264Z,16.80
2022-09-09T04:43:36.603Z,16.80
2022-09-09T04:46:04.821Z,16.80
2022-09-09T04:48:33.187Z,16.80
2022-09-09T04:51:05.713Z,16.70
2022-09-09T04:53:35.079Z,16.80
2022-09-09T04:56:07.865Z,16.80
2022-09-09T04:58:36.918Z,16.80
2022-09-09T05:01:07.627Z,16.70
2022-09-09T05:03:35.958Z,16.70
2022-09-09T05:06:10.748Z,16.70
2022-09-09T05:08:39.905Z,16.60
2022-09-09T05:11:19.697Z,16.60
2022-09-09T05:13:48.033Z,16.60
2022-09-09T05:16:17.017Z,16.60
2022-09-09T05:18:45.685Z,16.60
2022-09-09T05:21:16.862Z,16.60
2022-09-09T05:23:44.957Z,16.50
2022-09-09T05:26:17.703Z,16.50
2022-09-09T05:28:46.659Z,16.50
2022-09-09T05:31:16.195Z,16.50
2022-09-09T05:33:46.927Z,16.50
2022-09-09T05:36:18.521Z,16.50
2022-09-09T05:38:46.727Z,16.50
2022-09-09T05:41:18.173Z,16.50
2022-09-09T05:43:47.943Z,16.50
2022-09-09T05:46:17.388Z,16.50
2022-09-09T05:48:48.325Z,16.50
2022-09-09T05:51:19.647Z,16.50
2022-09-09T05:53:48.707Z,16.50
2022-09-09T05:56:19.547Z,16.50
2022-09-09T05:58:50.197Z,16.50
2022-09-09T06:01:20.790Z,16.50
2022-09-09T06:03:50.680Z,16.50
2022-09-09T06:06:22.782Z,16.50
2022-09-09T06:08:53.979Z,16.50
2022-09-09T06:11:23.689Z,16.60
2022-09-09T06:13:54.862Z,16.60
2022-09-09T06:16:25.251Z,16.60
2022-09-09T06:18:55.396Z,16.60
2022-09-09T06:21:26.782Z,16.60
2022-09-09T06:24:00.212Z,16.50
2022-09-09T06:26:31.818Z,16.50
2022-09-09T06:29:01.157Z,16.50
2022-09-09T06:31:31.954Z,16.50
2022-09-09T06:34:01.468Z,16.60
2022-09-09T06:36:33.102Z,16.50
2022-09-09T06:39:02.268Z,16.50
2022-09-09T06:41:33.955Z,16.50
2022-09-09T06:44:02.720Z,16.50
2022-09-09T06:46:34.058Z,16.50
2022-09-09T06:49:04.026Z,16.60
2022-09-09T06:51:35.712Z,16.70
2022-09-09T06:54:05.353Z,16.70
2022-09-09T06:56:36.675Z,16.70
2022-09-09T06:59:09.598Z,16.80
2022-09-09T07:01:41.711Z,16.80
2022-09-09T07:04:12.749Z,16.90
2022-09-09T07:06:44.272Z,17.00
2022-09-09T07:09:14.335Z,17.10
2022-09-09T07:11:45.430Z,17.10
2022-09-09T07:14:14.914Z,17.10
2022-09-09T07:16:43.755Z,17.10
2022-09-09T07:19:13.580Z,17.10
2022-09-09T07:21:43.723Z,17.20
2022-09-09T07:24:13.859Z,17.20
2022-09-09T07:26:42.307Z,17.20
2022-09-09T07:29:11.805Z,17.30
2022-09-09T07:31:41.633Z,17.30
2022-09-09T07:34:09.951Z,17.30
2022-09-09T07:36:40.173Z,17.30
2022-09-09T07:39:12.945Z,17.30
2022-09-09T07:41:44.263Z,17.30
2022-09-09T07:44:15.351Z,17.40
2022-09-09T07:46:44.520Z,17.50
2022-09-09T07:49:13.430Z,17.50
2022-09-09T07:51:44.090Z,17.60
2022-09-09T07:54:15.807Z,17.60
2022-09-09T07:56:44.612Z,17.70
2022-09-09T07:59:13.074Z,17.70
2022-09-09T08:01:43.398Z,17.70
2022-09-09T08:04:16.108Z,17.70
2022-09-09T08:06:47.488Z,17.70
2022-09-09T08:09:17.531Z,17.70
2022-09-09T08:11:46.224Z,17.70
2022-09-09T08:14:15.279Z,17.60
2022-09-09T08:16:45.625Z,17.60
2022-09-09T08:19:16.326Z,17.70
2022-09-09T08:21:46.724Z,17.80
2022-09-09T08:24:20.654Z,17.90
2022-09-09T08:26:50.630Z,18.00
2022-09-09T08:29:19.492Z,18.00
2022-09-09T08:31:49.809Z,18.00
2022-09-09T08:34:18.647Z,18.00
2022-09-09T08:36:47.926Z,18.00
2022-09-09T08:39:19.925Z,17.90
2022-09-09T08:42:14.699Z,18.00
2022-09-09T08:44:52.254Z,18.10
2022-09-09T08:47:33.776Z,18.10
2022-09-09T08:50:15.054Z,18.20
2022-09-09T08:52:53.414Z,18.20
2022-09-09T08:55:30.976Z,18.40
2022-09-09T08:58:03.456Z,18.50
2022-09-09T09:00:40.562Z,18.70
2022-09-09T09:03:18.552Z,19.00
2022-09-09T09:05:53.513Z,19.30
2022-09-09T09:08:30.951Z,19.50
2022-09-09T09:11:02.645Z,19.80
2022-09-09T09:13:41.673Z,20.20
2022-09-09T09:16:21.799Z,20.50
2022-09-09T09:18:50.442Z,20.80
2022-09-09T09:21:25.403Z,21.20
2022-09-09T09:23:59.238Z,21.50
2022-09-09T09:26:34.949Z,21.80
2022-09-09T09:29:10.615Z,22.10
2022-09-09T09:31:39.116Z,22.50
2022-09-09T09:34:08.236Z,22.60
2022-09-09T09:36:40.859Z,22.80
2022-09-09T09:42:06.422Z,23.00
2022-09-09T09:44:38.146Z,22.80
2022-09-09T09:47:13.500Z,22.00
2022-09-09T09:49:41.977Z,21.80
2022-09-09T09:52:19.780Z,21.80
2022-09-09T09:54:48.108Z,21.60
2022-09-09T09:57:18.855Z,21.40
2022-09-09T09:59:48.435Z,21.30
2022-09-09T10:02:20.211Z,21.10
2022-09-09T10:04:49.654Z,20.80
2022-09-09T10:07:22.500Z,20.60
2022-09-09T10:09:55.531Z,20.40
2022-09-09T10:12:37.358Z,20.20
2022-09-09T10:15:17.906Z,19.90
2022-09-09T10:17:57.083Z,19.80
2022-09-09T10:20:36.130Z,19.50
2022-09-09T10:23:16.232Z,19.40
2022-09-09T10:26:03.663Z,19.40
2022-09-09T10:29:03.409Z,19.30
2022-09-09T10:31:45.802Z,19.30
2022-09-09T10:34:40.440Z,19.20
2022-09-09T10:37:19.795Z,19.10
2022-09-09T10:39:48.979Z,18.90
2022-09-09T10:42:19.200Z,18.70
2022-09-09T10:44:59.369Z,18.60
2022-09-09T10:48:06.912Z,18.40
2022-09-09T10:51:01.317Z,18.20
2022-09-09T10:53:39.787Z,18.00
2022-09-09T10:56:11.796Z,18.00
2022-09-09T10:58:44.443Z,18.00
2022-09-09T11:01:21.006Z,18.10
2022-09-09T11:04:00.000Z,18.10
2022-09-09T11:06:33.780Z,18.10
2022-09-09T11:09:06.165Z,18.30
2022-09-09T11:11:39.831Z,18.50
2022-09-09T11:14:14.387Z,18.60
2022-09-09T11:16:50.697Z,18.70
2022-09-09T11:19:28.899Z,19.10
2022-09-09T11:21:59.532Z,19.20
2022-09-09T11:24:32.292Z,19.00
2022-09-09T11:27:06.484Z,19.10
2022-09-09T11:30:03.667Z,19.10
2022-09-09T11:33:11.093Z,19.10
2022-09-09T11:36:04.471Z,19.00
2022-09-09T11:38:53.064Z,19.00
2022-09-09T11:41:28.702Z,19.00
2022-09-09T11:43:57.304Z,19.00
2022-09-09T11:46:45.726Z,19.00
2022-09-09T11:49:35.783Z,19.00
2022-09-09T11:52:13.821Z,19.10
2022-09-09T11:54:50.251Z,19.10
2022-09-09T11:57:34.339Z,19.10
2022-09-09T12:00:03.625Z,19.00
2022-09-09T12:02:32.928Z,18.90
2022-09-09T12:05:09.118Z,18.70
2022-09-09T12:07:40.491Z,18.70
2022-09-09T12:10:25.864Z,18.90
2022-09-09T12:12:54.583Z,19.20
2022-09-09T12:15:29.092Z,19.40
2022-09-09T12:18:03.792Z,19.60
2022-09-09T12:20:39.993Z,19.70
2022-09-09T12:23:27.827Z,20.00
2022-09-09T12:26:02.617Z,20.20
2022-09-09T12:28:46.102Z,20.20
2022-09-09T12:31:20.183Z,20.00
2022-09-09T12:33:49.305Z,19.90
2022-09-09T12:36:24.157Z,19.80
2022-09-09T12:38:53.376Z,19.70
2022-09-09T12:41:23.749Z,19.60
2022-09-09T12:43:52.900Z,19.50
2022-09-09T12:46:31.269Z,19.40
2022-09-09T12:48:59.818Z,19.30
2022-09-09T12:51:32.295Z,19.30
2022-09-09T12:54:02.179Z,19.50
2022-09-09T12:56:33.698Z,19.50
2022-09-09T12:59:02.244Z,19.60
2022-09-09T13:01:33.268Z,19.70
2022-09-09T13:04:02.649Z,19.60
2022-09-09T13:06:34.122Z,19.80
2022-09-09T13:09:04.403Z,19.80
2022-09-09T13:11:39.275Z,19.90
2022-09-09T13:14:09.320Z,20.00
2022-09-09T13:16:42.973Z,20.10
2022-09-09T13:19:16.619Z,20.30
2022-09-09T13:21:46.224Z,20.40
2022-09-09T13:24:30.530Z,20.40
2022-09-09T13:27:02.833Z,20.20
2022-09-09T13:29:32.534Z,20.00
2022-09-09T13:32:08.936Z,20.00
2022-09-09T13:34:38.307Z,19.90
2022-09-09T13:37:09.197Z,19.80
2022-09-09T13:39:39.200Z,19.60
2022-09-09T13:42:09.436Z,19.30
2022-09-09T13:44:41.095Z,19.10
2022-09-09T13:47:21.199Z,19.00
2022-09-09T13:49:49.715Z,19.00
2022-09-09T13:52:20.848Z,19.00
2022-09-09T13:54:50.858Z,19.10
2022-09-09T13:57:21.039Z,19.20
2022-09-09T14:00:06.078Z,19.30
2022-09-09T14:02:35.878Z,19.30
2022-09-09T14:05:05.233Z,19.40
2022-09-09T14:07:34.816Z,19.30
2022-09-09T14:10:03.209Z,19.40
2022-09-09T14:12:32.244Z,19.50
2022-09-09T14:15:04.715Z,19.60
2022-09-09T14:17:32.886Z,19.60
2022-09-09T14:20:01.131Z,19.50
2022-09-09T14:22:29.571Z,19.40
2022-09-09T14:24:59.692Z,19.30
2022-09-09T14:27:28.558Z,19.20
2022-09-09T14:29:57.375Z,19.20
2022-09-09T14:32:31.893Z,19.20
2022-09-09T14:35:07.548Z,19.10
2022-09-09T14:37:35.749Z,19.00
2022-09-09T14:40:06.325Z,18.80
2022-09-09T14:42:34.467Z,18.70
2022-09-09T14:45:03.047Z,18.80
2022-09-09T14:47:31.392Z,18.80
2022-09-09T14:50:06.364Z,18.80
2022-09-09T14:53:00.671Z,18.80
2022-09-09T14:55:30.575Z,18.80
2022-09-09T14:57:59.707Z,18.90
2022-09-09T15:00:28.098Z,18.90
2022-09-09T15:02:56.944Z,19.00
2022-09-09T15:05:27.922Z,19.10
2022-09-09T15:07:56.233Z,19.20
2022-09-09T15:10:24.359Z,19.30
2022-09-09T15:12:53.930Z,19.40
2022-09-09T15:15:22.184Z,19.50
2022-09-09T15:17:51.243Z,19.60
2022-09-09T15:20:20.137Z,19.60
2022-09-09T15:22:48.278Z,19.70
2022-09-09T15:25:18.822Z,19.50
2022-09-09T15:27:47.032Z,19.40
2022-09-09T15:30:16.707Z,19.40
2022-09-09T15:32:44.861Z,19.20
2022-09-09T15:35:13.600Z,19.20
2022-09-09T15:37:41.744Z,19.30
2022-09-09T15:40:10.928Z,19.30
2022-09-09T15:42:39.198Z,19.30
2022-09-09T15:45:13.688Z,19.30
2022-09-09T15:47:43.254Z,19.20
2022-09-09T15:50:11.498Z,19.20
2022-09-09T15:52:39.674Z,19.10
2022-09-09T15:55:09.289Z,19.00
2022-09-09T15:57:37.530Z,19.00
2022-09-09T16:00:07.269Z,19.00
2022-09-09T16:02:38.078Z,18.90
2022-09-09T16:05:08.631Z,18.90
2022-09-09T16:07:37.111Z,18.80
2022-09-09T16:10:06.051Z,18.70
2022-09-09T16:12:34.185Z,18.70
2022-09-09T16:15:02.646Z,18.70
2022-09-09T16:17:31.093Z,18.70
2022-09-09T16:19:59.567Z,18.60
2022-09-09T16:22:29.102Z,18.50
2022-09-09T16:24:57.347Z,18.50
2022-09-09T16:27:25.763Z,18.50
2022-09-09T16:29:54.848Z,18.50
2022-09-09T16:32:23.363Z,18.40
2022-09-09T16:34:51.855Z,18.40
2022-09-09T16:37:20.278Z,18.30
2022-09-09T16:39:51.290Z,18.40
2022-09-09T16:42:19.458Z,18.40
2022-09-09T16:44:47.919Z,18.40
2022-09-09T16:47:16.177Z,18.40
2022-09-09T16:49:44.652Z,18.40
2022-09-09T16:52:15.997Z,18.30
2022-09-09T16:54:47.077Z,18.30
2022-09-09T16:57:16.857Z,18.30
2022-09-09T16:59:45.065Z,18.20
2022-09-09T17:02:13.537Z,18.20
2022-09-09T17:04:41.872Z,18.10
2022-09-09T17:07:10.857Z,18.00
2022-09-09T17:09:39.015Z,18.00
2022-09-09T17:12:09.502Z,18.00
2022-09-09T17:14:39.370Z,18.00
2022-09-09T17:17:25.148Z,17.90
2022-09-09T17:19:57.149Z,17.90
2022-09-09T17:22:27.583Z,17.90
2022-09-09T17:24:55.784Z,17.90
2022-09-09T17:27:24.354Z,17.90
2022-09-09T17:29:53.949Z,17.90
2022-09-09T17:32:22.101Z,17.80
2022-09-09T17:34:50.468Z,17.80
2022-09-09T17:37:18.690Z,17.80
2022-09-09T17:39:46.999Z,17.70
2022-09-09T17:42:16.042Z,17.60
2022-09-09T17:44:44.205Z,17.50
2022-09-09T17:47:14.188Z,17.50
2022-09-09T17:49:42.780Z,17.40
2022-09-09T17:52:11.008Z,17.40
2022-09-09T17:54:39.122Z,17.40
2022-09-09T17:57:13.256Z,17.40
2022-09-09T17:59:47.677Z,17.30
2022-09-09T18:02:19.889Z,17.40
2022-09-09T18:04:48.424Z,17.30
2022-09-09T18:07:16.647Z,17.30
2022-09-09T18:09:44.912Z,17.30
2022-09-09T18:12:13.627Z,17.20
2022-09-09T18:14:41.872Z,17.20
2022-09-09T18:17:11.067Z,17.10
2022-09-09T18:19:41.020Z,17.00
2022-09-09T18:22:09.462Z,17.00
2022-09-09T18:24:38.272Z,17.00
2022-09-09T18:27:24.582Z,17.00
2022-09-09T18:29:52.792Z,17.00
2022-09-09T18:32:21.442Z,16.90
2022-09-09T18:34:55.494Z,16.90
2022-09-09T18:37:23.945Z,16.90
2022-09-09T18:39:53.005Z,16.90
2022-09-09T18:42:21.320Z,16.90
2022-09-09T18:44:49.476Z,16.90
2022-09-09T18:47:18.027Z,16.90
2022-09-09T18:49:47.355Z,16.90
2022-09-09T18:52:17.029Z,16.80
2022-09-09T18:54:46.184Z,16.90
2022-09-09T18:57:14.451Z,16.90
2022-09-09T18:59:42.703Z,16.90
2022-09-09T19:02:13.054Z,16.80
2022-09-09T19:04:41.356Z,16.80
2022-09-09T19:07:11.521Z,16.70
2022-09-09T19:09:41.644Z,16.80
2022-09-09T19:12:10.038Z,16.70
2022-09-09T19:14:38.703Z,16.70
2022-09-09T19:17:07.523Z,16.80
2022-09-09T19:19:36.740Z,16.80
2022-09-09T19:22:08.965Z,16.80
2022-09-09T19:24:37.571Z,16.80
2022-09-09T19:27:08.262Z,16.90
2022-09-09T19:29:39.443Z,16.90
2022-09-09T19:34:55.982Z,16.80
2022-09-09T19:37:24.213Z,16.80
2022-09-09T19:39:52.433Z,16.80
2022-09-09T19:42:22.678Z,16.80
2022-09-09T19:44:51.203Z,16.80
2022-09-09T19:47:20.382Z,16.80
2022-09-09T19:49:48.775Z,16.70
2022-09-09T19:52:18.711Z,16.70
2022-09-09T19:54:47.498Z,16.80
2022-09-09T19:57:16.225Z,16.70
2022-09-09T19:59:45.777Z,16.70
2022-09-09T20:02:15.734Z,16.70
2022-09-09T20:04:44.730Z,16.60
2022-09-09T20:07:14.920Z,16.60
2022-09-09T20:09:43.247Z,16.50
2022-09-09T20:12:11.583Z,16.50
2022-09-09T20:14:40.227Z,16.50
2022-09-09T20:17:11.241Z,16.50
2022-09-09T20:19:40.640Z,16.40
2022-09-09T20:22:08.912Z,16.40
2022-09-09T20:24:38.156Z,16.40
2022-09-09T20:27:08.245Z,16.40
2022-09-09T20:29:37.334Z,16.40
2022-09-09T20:32:06.884Z,16.40
2022-09-09T20:34:36.659Z,16.40
2022-09-09T20:37:05.907Z,16.40
2022-09-09T20:39:35.673Z,16.40
2022-09-09T20:42:04.762Z,16.40
2022-09-09T20:44:33.143Z,16.40
2022-09-09T20:47:06.486Z,16.40
2022-09-09T20:49:36.331Z,16.40
2022-09-09T20:52:05.998Z,16.40
2022-09-09T20:54:35.918Z,16.40
2022-09-09T20:57:04.213Z,16.30
2022-09-09T20:59:32.621Z,16.40
2022-09-09T21:02:01.563Z,16.40
2022-09-09T21:04:31.257Z,16.40
2022-09-09T21:07:01.497Z,16.40
2022-09-09T21:09:31.124Z,16.50
2022-09-09T21:11:59.210Z,16.50
2022-09-09T21:14:28.397Z,16.50
2022-09-09T21:16:56.844Z,16.50
2022-09-09T21:19:25.163Z,16.50
2022-09-09T21:21:53.367Z,16.60
2022-09-09T21:24:23.246Z,16.60
2022-09-09T21:26:51.588Z,16.50
2022-09-09T21:29:20.070Z,16.50
2022-09-09T21:31:48.280Z,16.50
2022-09-09T21:34:18.484Z,16.50
2022-09-09T21:36:46.735Z,16.60
2022-09-09T21:39:14.939Z,16.60
2022-09-09T21:41:50.073Z,16.60
2022-09-09T21:44:28.365Z,16.70
2022-09-09T21:46:56.657Z,16.70
2022-09-09T21:49:24.859Z,16.60
2022-09-09T21:51:53.056Z,16.60
2022-09-09T21:54:22.179Z,16.50
2022-09-09T21:56:52.513Z,16.50
2022-09-09T21:59:20.892Z,16.50
2022-09-09T22:01:49.124Z,16.50
2022-09-09T22:04:17.873Z,16.40
2022-09-09T22:06:45.972Z,16.40
2022-09-09T22:09:14.117Z,16.40
2022-09-09T22:11:42.335Z,16.40
2022-09-09T22:14:12.263Z,16.40
2022-09-09T22:16:40.409Z,16.40
2022-09-09T22:19:14.975Z,16.40
2022-09-09T22:21:48.774Z,16.40
2022-09-09T22:24:17.230Z,16.40
2022-09-09T22:26:45.867Z,16.40
2022-09-09T22:29:15.803Z,16.40
2022-09-09T22:31:44.854Z,16.40
2022-09-09T22:34:13.340Z,16.30
2022-09-09T22:36:42.199Z,16.30
2022-09-09T22:39:10.297Z,16.30
2022-09-09T22:41:39.435Z,16.30
2022-09-09T22:44:10.178Z,16.20
2022-09-09T22:46:40.052Z,16.30
2022-09-09T22:49:08.257Z,16.30
2022-09-09T22:51:36.590Z,16.30
2022-09-09T22:54:07.893Z,16.30
2022-09-09T22:56:36.729Z,16.30
2022-09-09T22:59:05.285Z,16.30
2022-09-09T23:01:35.268Z,16.20
2022-09-09T23:04:05.613Z,16.10
2022-09-09T23:06:33.847Z,16.20
2022-09-09T23:09:03.841Z,16.10
2022-09-09T23:11:35.151Z,16.10
2022-09-09T23:14:06.627Z,16.00
2022-09-09T23:16:38.446Z,16.00
2022-09-09T23:19:09.993Z,16.00
2022-09-09T23:21:40.508Z,16.10
2022-09-09T23:24:11.627Z,16.00
2022-09-09T23:26:40.454Z,16.00
2022-09-09T23:29:09.801Z,16.00
2022-09-09T23:31:38.581Z,16.00
2022-09-09T23:34:08.484Z,16.00
2022-09-09T23:36:37.675Z,15.90
2022-09-09T23:39:07.744Z,15.90
2022-09-09T23:41:37.989Z,15.90
2022-09-09T23:44:07.307Z,15.90
2022-09-09T23:46:36.764Z,15.90
2022-09-09T23:49:08.276Z,15.90
2022-09-09T23:51:37.816Z,15.90
2022-09-09T23:54:07.098Z,15.90
2022-09-09T23:56:38.135Z,15.90
2022-09-09T23:59:07.482Z,15.80
